sensor_id;sensor_type;location;lat;lon;timestamp;pressure;altitude;pressure_sealevel;temperature;humidity
19526;BME280;9907;42.676;26.348;2023-06-10T00:02:21;99208.44;;;18.32;75.08
19526;BME280;9907;42.676;26.348;2023-06-10T00:04:46;99207.84;;;18.43;74.32
19526;BME280;9907;42.676;26.348;2023-06-10T00:07:13;99203.06;;;18.32;73.93
19526;BME280;9907;42.676;26.348;2023-06-10T00:09:39;99204.75;;;18.46;73.96
19526;BME280;9907;42.676;26.348;2023-06-10T00:12:08;99204.91;;;18.32;74.67
19526;BME280;9907;42.676;26.348;2023-06-10T00:14:38;99198.28;;;18.34;74.82
19526;BME280;9907;42.676;26.348;2023-06-10T00:17:04;99200.09;;;18.14;76.05
19526;BME280;9907;42.676;26.348;2023-06-10T00:19:30;99197.69;;;18.39;73.93
19526;BME280;9907;42.676;26.348;2023-06-10T00:21:56;99195.66;;;18.47;73.28
19526;BME280;9907;42.676;26.348;2023-06-10T00:24:22;99193.34;;;18.38;74.33
19526;BME280;9907;42.676;26.348;2023-06-10T00:26:48;99191.88;;;18.29;75.00
19526;BME280;9907;42.676;26.348;2023-06-10T00:29:14;99186.94;;;18.32;74.91
19526;BME280;9907;42.676;26.348;2023-06-10T00:31:39;99195.56;;;18.21;75.68
19526;BME280;9907;42.676;26.348;2023-06-10T00:34:05;99192.69;;;18.29;74.42
19526;BME280;9907;42.676;26.348;2023-06-10T00:36:32;99191.84;;;18.22;75.43
19526;BME280;9907;42.676;26.348;2023-06-10T00:38:57;99194.34;;;18.30;74.64
19526;BME280;9907;42.676;26.348;2023-06-10T00:41:23;99197.59;;;18.13;75.25
19526;BME280;9907;42.676;26.348;2023-06-10T00:43:49;99191.97;;;18.01;76.63
19526;BME280;9907;42.676;26.348;2023-06-10T00:46:14;99204.06;;;18.25;75.21
19526;BME280;9907;42.676;26.348;2023-06-10T00:48:42;99199.44;;;18.12;76.34
19526;BME280;9907;42.676;26.348;2023-06-10T00:51:08;99205.66;;;18.13;76.35
19526;BME280;9907;42.676;26.348;2023-06-10T00:53:41;99203.06;;;18.32;74.58
19526;BME280;9907;42.676;26.348;2023-06-10T00:56:07;99207.97;;;18.22;75.14
19526;BME280;9907;42.676;26.348;2023-06-10T00:58:32;99203.81;;;18.20;75.67
19526;BME280;9907;42.676;26.348;2023-06-10T01:00:58;99205.53;;;18.34;74.60
19526;BME280;9907;42.676;26.348;2023-06-10T01:03:24;99199.91;;;18.22;76.22
19526;BME280;9907;42.676;26.348;2023-06-10T01:06:21;99201.31;;;18.12;76.60
19526;BME280;9907;42.676;26.348;2023-06-10T01:08:56;99196.75;;;18.06;77.70
19526;BME280;9907;42.676;26.348;2023-06-10T01:11:28;99185.41;;;18.17;76.75
19526;BME280;9907;42.676;26.348;2023-06-10T01:13:58;99197.16;;;18.03;76.79
19526;BME280;9907;42.676;26.348;2023-06-10T01:16:23;99195.34;;;18.23;76.49
19526;BME280;9907;42.676;26.348;2023-06-10T01:18:50;99188.09;;;18.10;77.08
19526;BME280;9907;42.676;26.348;2023-06-10T01:21:22;99188.47;;;18.07;77.07
19526;BME280;9907;42.676;26.348;2023-06-10T01:23:51;99191.69;;;17.89;78.20
19526;BME280;9907;42.676;26.348;2023-06-10T01:26:17;99185.31;;;17.97;77.96
19526;BME280;9907;42.676;26.348;2023-06-10T01:28:59;99177.25;;;17.97;78.65
19526;BME280;9907;42.676;26.348;2023-06-10T01:31:38;99179.94;;;17.97;77.48
19526;BME280;9907;42.676;26.348;2023-06-10T01:34:13;99166.09;;;17.93;77.84
19526;BME280;9907;42.676;26.348;2023-06-10T01:36:41;99162.31;;;17.81;78.33
19526;BME280;9907;42.676;26.348;2023-06-10T01:39:10;99164.81;;;17.83;79.05
19526;BME280;9907;42.676;26.348;2023-06-10T01:41:37;99166.25;;;17.85;78.93
19526;BME280;9907;42.676;26.348;2023-06-10T01:44:03;99162.38;;;17.88;78.65
19526;BME280;9907;42.676;26.348;2023-06-10T01:46:28;99158.56;;;17.76;79.17
19526;BME280;9907;42.676;26.348;2023-06-10T01:48:54;99163.53;;;17.79;78.89
19526;BME280;9907;42.676;26.348;2023-06-10T01:51:19;99165.19;;;17.73;80.00
19526;BME280;9907;42.676;26.348;2023-06-10T01:53:45;99167.47;;;17.48;81.66
19526;BME280;9907;42.676;26.348;2023-06-10T01:56:10;99167.66;;;17.40;81.92
19526;BME280;9907;42.676;26.348;2023-06-10T01:58:42;99166.44;;;17.49;81.47
19526;BME280;9907;42.676;26.348;2023-06-10T02:01:07;99167.16;;;17.58;81.14
19526;BME280;9907;42.676;26.348;2023-06-10T02:03:33;99165.94;;;17.61;80.75
19526;BME280;9907;42.676;26.348;2023-06-10T02:05:58;99170.38;;;17.47;82.34
19526;BME280;9907;42.676;26.348;2023-06-10T02:08:23;99170.94;;;17.42;82.26
19526;BME280;9907;42.676;26.348;2023-06-10T02:10:49;99177.47;;;17.33;83.10
19526;BME280;9907;42.676;26.348;2023-06-10T02:13:14;99170.47;;;17.32;83.09
19526;BME280;9907;42.676;26.348;2023-06-10T02:15:40;99177.75;;;17.38;82.82
19526;BME280;9907;42.676;26.348;2023-06-10T02:18:05;99173.91;;;17.54;81.34
19526;BME280;9907;42.676;26.348;2023-06-10T02:20:31;99178.22;;;17.48;81.86
19526;BME280;9907;42.676;26.348;2023-06-10T02:22:57;99174.50;;;17.49;81.65
19526;BME280;9907;42.676;26.348;2023-06-10T02:25:22;99177.22;;;17.56;80.91
19526;BME280;9907;42.676;26.348;2023-06-10T02:27:48;99177.81;;;17.51;81.98
19526;BME280;9907;42.676;26.348;2023-06-10T02:30:13;99176.03;;;17.31;83.05
19526;BME280;9907;42.676;26.348;2023-06-10T02:32:39;99171.81;;;17.49;81.22
19526;BME280;9907;42.676;26.348;2023-06-10T02:35:06;99172.91;;;17.55;81.37
19526;BME280;9907;42.676;26.348;2023-06-10T02:37:31;99169.72;;;17.45;81.55
19526;BME280;9907;42.676;26.348;2023-06-10T02:39:57;99169.56;;;17.53;81.60
19526;BME280;9907;42.676;26.348;2023-06-10T02:42:22;99162.88;;;17.36;82.88
19526;BME280;9907;42.676;26.348;2023-06-10T02:44:48;99162.34;;;17.26;83.30
19526;BME280;9907;42.676;26.348;2023-06-10T02:47:13;99177.59;;;17.19;84.59
19526;BME280;9907;42.676;26.348;2023-06-10T02:49:39;99167.78;;;17.32;83.22
19526;BME280;9907;42.676;26.348;2023-06-10T02:52:05;99177.00;;;17.51;81.29
19526;BME280;9907;42.676;26.348;2023-06-10T02:54:33;99169.13;;;17.49;82.68
19526;BME280;9907;42.676;26.348;2023-06-10T02:56:58;99168.94;;;17.51;81.83
19526;BME280;9907;42.676;26.348;2023-06-10T02:59:24;99161.47;;;17.46;82.96
19526;BME280;9907;42.676;26.348;2023-06-10T03:01:49;99167.28;;;17.50;82.00
19526;BME280;9907;42.676;26.348;2023-06-10T03:04:15;99168.19;;;17.57;81.94
19526;BME280;9907;42.676;26.348;2023-06-10T03:06:40;99170.41;;;17.53;82.63
19526;BME280;9907;42.676;26.348;2023-06-10T03:09:06;99165.50;;;17.57;81.05
19526;BME280;9907;42.676;26.348;2023-06-10T03:11:35;99165.94;;;17.61;80.67
19526;BME280;9907;42.676;26.348;2023-06-10T03:14:00;99165.53;;;17.64;80.60
19526;BME280;9907;42.676;26.348;2023-06-10T03:16:26;99170.94;;;17.70;80.35
19526;BME280;9907;42.676;26.348;2023-06-10T03:18:52;99163.28;;;17.67;82.21
19526;BME280;9907;42.676;26.348;2023-06-10T03:21:18;99169.63;;;17.60;82.71
19526;BME280;9907;42.676;26.348;2023-06-10T03:23:43;99159.19;;;17.78;81.13
19526;BME280;9907;42.676;26.348;2023-06-10T03:26:09;99156.22;;;18.07;79.83
19526;BME280;9907;42.676;26.348;2023-06-10T03:28:35;99163.34;;;18.28;79.21
19526;BME280;9907;42.676;26.348;2023-06-10T03:31:01;99152.59;;;18.41;79.36
19526;BME280;9907;42.676;26.348;2023-06-10T03:33:26;99150.19;;;18.53;78.23
19526;BME280;9907;42.676;26.348;2023-06-10T03:35:52;99151.88;;;18.80;77.91
19526;BME280;9907;42.676;26.348;2023-06-10T03:38:17;99148.16;;;19.01;75.33
19526;BME280;9907;42.676;26.348;2023-06-10T03:40:43;99149.41;;;19.24;72.69
19526;BME280;9907;42.676;26.348;2023-06-10T03:43:08;99151.84;;;19.39;71.39
19526;BME280;9907;42.676;26.348;2023-06-10T03:45:33;99154.34;;;19.27;70.49
19526;BME280;9907;42.676;26.348;2023-06-10T03:48:01;99141.91;;;19.26;70.76
19526;BME280;9907;42.676;26.348;2023-06-10T03:50:26;99146.50;;;19.32;69.73
19526;BME280;9907;42.676;26.348;2023-06-10T03:52:52;99149.81;;;19.28;69.80
19526;BME280;9907;42.676;26.348;2023-06-10T03:55:17;99153.09;;;19.30;70.14
19526;BME280;9907;42.676;26.348;2023-06-10T03:57:43;99155.59;;;19.31;71.71
19526;BME280;9907;42.676;26.348;2023-06-10T04:00:09;99156.03;;;19.28;72.27
19526;BME280;9907;42.676;26.348;2023-06-10T04:02:38;99155.19;;;19.15;74.74
19526;BME280;9907;42.676;26.348;2023-06-10T04:05:18;99150.63;;;19.28;73.03
19526;BME280;9907;42.676;26.348;2023-06-10T04:07:43;99144.84;;;19.25;75.03
19526;BME280;9907;42.676;26.348;2023-06-10T04:10:10;99147.72;;;19.30;73.56
19526;BME280;9907;42.676;26.348;2023-06-10T04:12:36;99144.63;;;19.39;71.83
19526;BME280;9907;42.676;26.348;2023-06-10T04:15:03;99150.22;;;19.44;70.05
19526;BME280;9907;42.676;26.348;2023-06-10T04:17:28;99145.22;;;19.61;72.80
19526;BME280;9907;42.676;26.348;2023-06-10T04:19:54;99149.47;;;19.95;71.25
19526;BME280;9907;42.676;26.348;2023-06-10T04:22:20;99152.00;;;20.34;67.31
19526;BME280;9907;42.676;26.348;2023-06-10T04:24:46;99144.44;;;20.50;66.30
19526;BME280;9907;42.676;26.348;2023-06-10T04:27:11;99144.31;;;20.69;66.09
19526;BME280;9907;42.676;26.348;2023-06-10T04:29:37;99150.31;;;20.96;64.93
19526;BME280;9907;42.676;26.348;2023-06-10T04:32:03;99143.41;;;21.31;64.40
19526;BME280;9907;42.676;26.348;2023-06-10T04:34:30;99139.00;;;21.55;64.59
19526;BME280;9907;42.676;26.348;2023-06-10T04:36:56;99138.06;;;21.86;64.16
19526;BME280;9907;42.676;26.348;2023-06-10T04:39:22;99139.78;;;22.17;61.48
19526;BME280;9907;42.676;26.348;2023-06-10T04:41:47;99138.09;;;22.34;60.65
19526;BME280;9907;42.676;26.348;2023-06-10T04:44:13;99145.16;;;22.35;60.96
19526;BME280;9907;42.676;26.348;2023-06-10T04:46:38;99134.16;;;22.78;59.68
19526;BME280;9907;42.676;26.348;2023-06-10T04:49:04;99133.31;;;22.77;58.82
19526;BME280;9907;42.676;26.348;2023-06-10T04:51:30;99141.25;;;22.61;58.95
19526;BME280;9907;42.676;26.348;2023-06-10T04:53:57;99141.63;;;22.35;60.42
19526;BME280;9907;42.676;26.348;2023-06-10T04:56:23;99136.25;;;22.16;60.67
19526;BME280;9907;42.676;26.348;2023-06-10T04:58:49;99135.91;;;22.43;59.12
19526;BME280;9907;42.676;26.348;2023-06-10T05:01:14;99138.97;;;22.46;58.64
19526;BME280;9907;42.676;26.348;2023-06-10T05:03:40;99143.59;;;22.99;57.96
19526;BME280;9907;42.676;26.348;2023-06-10T05:06:05;99142.97;;;23.50;57.03
19526;BME280;9907;42.676;26.348;2023-06-10T05:08:31;99145.06;;;23.71;56.07
19526;BME280;9907;42.676;26.348;2023-06-10T05:10:56;99143.38;;;24.45;52.69
19526;BME280;9907;42.676;26.348;2023-06-10T05:13:22;99144.97;;;24.29;52.22
19526;BME280;9907;42.676;26.348;2023-06-10T05:15:47;99143.44;;;24.10;54.07
19526;BME280;9907;42.676;26.348;2023-06-10T05:18:13;99138.19;;;23.92;54.53
19526;BME280;9907;42.676;26.348;2023-06-10T05:20:39;99141.88;;;23.86;54.80
19526;BME280;9907;42.676;26.348;2023-06-10T05:23:04;99139.06;;;23.69;53.43
19526;BME280;9907;42.676;26.348;2023-06-10T05:25:33;99140.00;;;23.63;54.00
19526;BME280;9907;42.676;26.348;2023-06-10T05:27:59;99141.75;;;23.69;54.84
19526;BME280;9907;42.676;26.348;2023-06-10T05:30:24;99131.16;;;23.67;55.47
19526;BME280;9907;42.676;26.348;2023-06-10T05:32:51;99134.22;;;23.71;54.61
19526;BME280;9907;42.676;26.348;2023-06-10T05:35:18;99132.91;;;23.85;53.71
19526;BME280;9907;42.676;26.348;2023-06-10T05:37:43;99135.72;;;24.02;52.69
19526;BME280;9907;42.676;26.348;2023-06-10T05:40:10;99128.00;;;24.10;53.38
19526;BME280;9907;42.676;26.348;2023-06-10T05:42:35;99136.63;;;24.07;52.86
19526;BME280;9907;42.676;26.348;2023-06-10T05:45:02;99130.59;;;24.17;51.54
19526;BME280;9907;42.676;26.348;2023-06-10T05:47:28;99129.72;;;24.28;52.30
19526;BME280;9907;42.676;26.348;2023-06-10T05:49:53;99128.78;;;24.34;51.69
19526;BME280;9907;42.676;26.348;2023-06-10T05:52:19;99130.13;;;24.48;52.29
19526;BME280;9907;42.676;26.348;2023-06-10T05:54:44;99127.25;;;24.83;52.04
19526;BME280;9907;42.676;26.348;2023-06-10T05:57:10;99118.88;;;25.35;50.34
19526;BME280;9907;42.676;26.348;2023-06-10T05:59:36;99123.88;;;25.43;51.14
19526;BME280;9907;42.676;26.348;2023-06-10T06:02:01;99118.38;;;25.38;48.97
19526;BME280;9907;42.676;26.348;2023-06-10T06:04:27;99119.34;;;25.65;49.40
19526;BME280;9907;42.676;26.348;2023-06-10T06:06:52;99118.59;;;25.91;48.99
19526;BME280;9907;42.676;26.348;2023-06-10T06:09:18;99122.03;;;26.03;48.02
19526;BME280;9907;42.676;26.348;2023-06-10T06:11:43;99115.63;;;26.14;49.38
19526;BME280;9907;42.676;26.348;2023-06-10T06:14:09;99111.03;;;26.63;47.77
19526;BME280;9907;42.676;26.348;2023-06-10T06:16:34;99119.19;;;26.37;46.88
19526;BME280;9907;42.676;26.348;2023-06-10T06:19:00;99112.03;;;26.57;47.72
19526;BME280;9907;42.676;26.348;2023-06-10T06:21:25;99110.22;;;26.68;48.37
19526;BME280;9907;42.676;26.348;2023-06-10T06:23:51;99117.03;;;26.92;46.99
19526;BME280;9907;42.676;26.348;2023-06-10T06:26:16;99106.81;;;27.04;47.99
19526;BME280;9907;42.676;26.348;2023-06-10T06:28:42;99108.81;;;27.19;47.10
19526;BME280;9907;42.676;26.348;2023-06-10T06:31:07;99108.81;;;27.19;47.05
19526;BME280;9907;42.676;26.348;2023-06-10T06:33:33;99112.53;;;27.45;46.57
19526;BME280;9907;42.676;26.348;2023-06-10T06:35:58;99107.72;;;27.52;46.26
19526;BME280;9907;42.676;26.348;2023-06-10T06:38:25;99109.91;;;27.55;45.03
19526;BME280;9907;42.676;26.348;2023-06-10T06:40:51;99110.75;;;28.08;44.79
19526;BME280;9907;42.676;26.348;2023-06-10T06:43:16;99108.22;;;27.96;42.79
19526;BME280;9907;42.676;26.348;2023-06-10T06:45:44;99101.81;;;27.70;43.75
19526;BME280;9907;42.676;26.348;2023-06-10T06:48:10;99100.06;;;27.49;44.52
19526;BME280;9907;42.676;26.348;2023-06-10T06:50:36;99101.53;;;27.30;43.99
19526;BME280;9907;42.676;26.348;2023-06-10T06:53:01;99102.69;;;27.81;43.08
19526;BME280;9907;42.676;26.348;2023-06-10T06:55:27;99089.66;;;27.98;42.62
19526;BME280;9907;42.676;26.348;2023-06-10T06:57:52;99100.84;;;27.96;39.43
19526;BME280;9907;42.676;26.348;2023-06-10T07:00:18;99096.69;;;27.79;39.50
19526;BME280;9907;42.676;26.348;2023-06-10T07:02:44;99087.88;;;28.24;38.84
19526;BME280;9907;42.676;26.348;2023-06-10T07:05:10;99093.03;;;28.15;38.50
19526;BME280;9907;42.676;26.348;2023-06-10T07:07:35;99082.81;;;28.73;37.81
19526;BME280;9907;42.676;26.348;2023-06-10T07:10:01;99090.75;;;28.94;37.91
19526;BME280;9907;42.676;26.348;2023-06-10T07:12:26;99090.47;;;28.91;37.13
19526;BME280;9907;42.676;26.348;2023-06-10T07:14:52;99089.09;;;28.83;37.29
19526;BME280;9907;42.676;26.348;2023-06-10T07:17:17;99091.28;;;28.86;37.29
19526;BME280;9907;42.676;26.348;2023-06-10T07:19:43;99086.81;;;28.30;38.05
19526;BME280;9907;42.676;26.348;2023-06-10T07:22:09;99077.50;;;28.31;38.14
19526;BME280;9907;42.676;26.348;2023-06-10T07:24:35;99092.38;;;28.90;37.86
19526;BME280;9907;42.676;26.348;2023-06-10T07:27:00;99086.94;;;29.00;37.89
19526;BME280;9907;42.676;26.348;2023-06-10T07:29:26;99079.25;;;28.72;38.34
19526;BME280;9907;42.676;26.348;2023-06-10T07:31:51;99082.56;;;28.89;37.50
19526;BME280;9907;42.676;26.348;2023-06-10T07:34:18;99086.09;;;28.90;38.15
19526;BME280;9907;42.676;26.348;2023-06-10T07:36:44;99083.09;;;28.81;38.20
19526;BME280;9907;42.676;26.348;2023-06-10T07:39:10;99080.09;;;28.98;37.54
19526;BME280;9907;42.676;26.348;2023-06-10T07:41:36;99079.28;;;29.33;37.88
19526;BME280;9907;42.676;26.348;2023-06-10T07:44:02;99083.63;;;29.39;37.76
19526;BME280;9907;42.676;26.348;2023-06-10T07:46:27;99080.09;;;29.18;37.03
19526;BME280;9907;42.676;26.348;2023-06-10T07:48:53;99081.47;;;29.36;37.88
19526;BME280;9907;42.676;26.348;2023-06-10T07:51:20;99086.88;;;28.65;38.10
19526;BME280;9907;42.676;26.348;2023-06-10T07:53:45;99084.16;;;28.75;38.00
19526;BME280;9907;42.676;26.348;2023-06-10T07:56:11;99084.75;;;28.77;37.73
19526;BME280;9907;42.676;26.348;2023-06-10T07:58:37;99090.09;;;28.42;38.45
19526;BME280;9907;42.676;26.348;2023-06-10T08:01:02;99086.84;;;28.50;38.77
19526;BME280;9907;42.676;26.348;2023-06-10T08:03:28;99076.25;;;28.84;38.03
19526;BME280;9907;42.676;26.348;2023-06-10T08:05:53;99089.09;;;28.83;38.28
19526;BME280;9907;42.676;26.348;2023-06-10T08:08:19;99086.94;;;28.85;37.60
19526;BME280;9907;42.676;26.348;2023-06-10T08:10:44;99078.09;;;28.53;38.19
19526;BME280;9907;42.676;26.348;2023-06-10T08:13:10;99088.94;;;28.18;38.41
19526;BME280;9907;42.676;26.348;2023-06-10T08:15:35;99081.44;;;27.88;38.30
19526;BME280;9907;42.676;26.348;2023-06-10T08:18:00;99087.38;;;28.47;37.77
19526;BME280;9907;42.676;26.348;2023-06-10T08:20:26;99083.38;;;27.92;38.85
19526;BME280;9907;42.676;26.348;2023-06-10T08:22:51;99081.97;;;27.85;38.13
19526;BME280;9907;42.676;26.348;2023-06-10T08:25:17;99091.97;;;27.69;38.05
19526;BME280;9907;42.676;26.348;2023-06-10T08:27:43;99084.75;;;27.95;38.69
19526;BME280;9907;42.676;26.348;2023-06-10T08:30:08;99086.47;;;28.16;39.17
19526;BME280;9907;42.676;26.348;2023-06-10T08:32:36;99087.13;;;28.48;38.01
19526;BME280;9907;42.676;26.348;2023-06-10T08:35:02;99090.88;;;27.65;38.31
19526;BME280;9907;42.676;26.348;2023-06-10T08:37:29;99086.06;;;27.82;38.06
19526;BME280;9907;42.676;26.348;2023-06-10T08:39:54;99095.97;;;27.15;38.86
19526;BME280;9907;42.676;26.348;2023-06-10T08:42:28;99087.34;;;27.70;38.79
19526;BME280;9907;42.676;26.348;2023-06-10T08:44:55;99093.28;;;28.09;38.99
19526;BME280;9907;42.676;26.348;2023-06-10T08:47:23;99087.06;;;28.23;39.51
19526;BME280;9907;42.676;26.348;2023-06-10T08:49:50;99094.50;;;27.81;39.24
19526;BME280;9907;42.676;26.348;2023-06-10T08:52:18;99090.09;;;28.32;38.42
19526;BME280;9907;42.676;26.348;2023-06-10T08:54:59;99093.59;;;28.27;38.21
19526;BME280;9907;42.676;26.348;2023-06-10T08:57:26;99097.09;;;28.13;38.57
19526;BME280;9907;42.676;26.348;2023-06-10T08:59:53;99083.59;;;27.81;39.59
19526;BME280;9907;42.676;26.348;2023-06-10T09:02:20;99089.50;;;28.15;39.19
19526;BME280;9907;42.676;26.348;2023-06-10T09:04:46;99094.97;;;28.25;39.67
19526;BME280;9907;42.676;26.348;2023-06-10T09:07:13;99095.50;;;28.12;39.30
19526;BME280;9907;42.676;26.348;2023-06-10T09:09:42;99086.72;;;28.10;39.88
19526;BME280;9907;42.676;26.348;2023-06-10T09:12:08;99091.06;;;28.05;39.69
19526;BME280;9907;42.676;26.348;2023-06-10T09:14:33;99089.75;;;28.13;40.18
19526;BME280;9907;42.676;26.348;2023-06-10T09:16:59;99098.66;;;27.98;39.44
19526;BME280;9907;42.676;26.348;2023-06-10T09:19:28;99092.59;;;27.81;40.06
19526;BME280;9907;42.676;26.348;2023-06-10T09:21:54;99096.75;;;27.10;41.65
19526;BME280;9907;42.676;26.348;2023-06-10T09:24:22;99085.59;;;27.12;41.70
19526;BME280;9907;42.676;26.348;2023-06-10T09:26:50;99092.16;;;27.16;41.05
19526;BME280;9907;42.676;26.348;2023-06-10T09:29:16;99100.06;;;27.54;40.60
19526;BME280;9907;42.676;26.348;2023-06-10T09:31:43;99094.91;;;27.16;41.72
19526;BME280;9907;42.676;26.348;2023-06-10T09:34:13;99094.03;;;27.10;41.71
19526;BME280;9907;42.676;26.348;2023-06-10T09:36:40;99089.16;;;27.49;40.85
19526;BME280;9907;42.676;26.348;2023-06-10T09:39:16;99092.69;;;27.49;41.54
19526;BME280;9907;42.676;26.348;2023-06-10T09:41:43;99085.78;;;27.37;42.36
19526;BME280;9907;42.676;26.348;2023-06-10T09:44:14;99083.09;;;27.05;42.96
19526;BME280;9907;42.676;26.348;2023-06-10T09:46:41;99081.81;;;27.18;42.44
19526;BME280;9907;42.676;26.348;2023-06-10T09:49:07;99078.53;;;27.16;42.27
19526;BME280;9907;42.676;26.348;2023-06-10T09:51:32;99082.97;;;27.27;42.93
19526;BME280;9907;42.676;26.348;2023-06-10T09:53:59;99078.19;;;27.44;42.37
19526;BME280;9907;42.676;26.348;2023-06-10T09:56:34;99081.47;;;27.46;42.67
19526;BME280;9907;42.676;26.348;2023-06-10T09:59:00;99074.91;;;27.42;42.73
19526;BME280;9907;42.676;26.348;2023-06-10T10:01:26;99078.25;;;27.49;42.78
19526;BME280;9907;42.676;26.348;2023-06-10T10:03:52;99088.63;;;27.52;44.15
19526;BME280;9907;42.676;26.348;2023-06-10T10:06:19;99076.16;;;27.66;43.17
19526;BME280;9907;42.676;26.348;2023-06-10T10:08:47;99080.59;;;27.82;43.20
19526;BME280;9907;42.676;26.348;2023-06-10T10:11:17;99076.09;;;27.56;41.48
19526;BME280;9907;42.676;26.348;2023-06-10T10:13:45;99077.69;;;27.47;42.33
19526;BME280;9907;42.676;26.348;2023-06-10T10:16:23;99073.97;;;27.63;42.42
19526;BME280;9907;42.676;26.348;2023-06-10T10:18:56;99070.66;;;27.61;42.92
19526;BME280;9907;42.676;26.348;2023-06-10T10:21:27;99066.69;;;27.84;42.66
19526;BME280;9907;42.676;26.348;2023-06-10T10:24:16;99071.06;;;27.85;43.96
19526;BME280;9907;42.676;26.348;2023-06-10T10:26:43;99075.91;;;27.68;42.78
19526;BME280;9907;42.676;26.348;2023-06-10T10:29:14;99072.38;;;27.35;42.05
19526;BME280;9907;42.676;26.348;2023-06-10T10:31:42;99067.34;;;27.49;42.45
19526;BME280;9907;42.676;26.348;2023-06-10T10:34:16;99064.75;;;27.79;43.05
19526;BME280;9907;42.676;26.348;2023-06-10T10:36:45;99052.00;;;27.95;42.00
19526;BME280;9907;42.676;26.348;2023-06-10T10:39:11;99057.63;;;27.73;41.30
19526;BME280;9907;42.676;26.348;2023-06-10T10:41:38;99052.94;;;27.58;41.37
19526;BME280;9907;42.676;26.348;2023-06-10T10:44:05;99049.91;;;27.55;41.56
19526;BME280;9907;42.676;26.348;2023-06-10T10:46:45;99048.66;;;27.83;41.26
19526;BME280;9907;42.676;26.348;2023-06-10T10:49:14;99045.00;;;27.52;40.88
19526;BME280;9907;42.676;26.348;2023-06-10T10:52:00;99054.94;;;27.36;41.33
19526;BME280;9907;42.676;26.348;2023-06-10T10:54:43;99043.13;;;27.16;41.50
19526;BME280;9907;42.676;26.348;2023-06-10T11:05:05;99048.69;;;27.36;40.78
19526;BME280;9907;42.676;26.348;2023-06-10T11:07:32;99041.19;;;27.53;41.00
19526;BME280;9907;42.676;26.348;2023-06-10T11:10:02;99041.69;;;27.50;40.98
19526;BME280;9907;42.676;26.348;2023-06-10T11:15:18;99037.09;;;27.55;41.28
19526;BME280;9907;42.676;26.348;2023-06-10T11:21:05;99027.56;;;27.53;41.56
19526;BME280;9907;42.676;26.348;2023-06-10T11:28:41;99026.81;;;27.26;40.84
19526;BME280;9907;42.676;26.348;2023-06-10T11:31:08;99022.50;;;27.35;40.84
19526;BME280;9907;42.676;26.348;2023-06-10T11:33:38;99023.19;;;27.57;40.83
19526;BME280;9907;42.676;26.348;2023-06-10T11:36:07;99026.19;;;27.55;41.67
19526;BME280;9907;42.676;26.348;2023-06-10T11:38:33;99015.44;;;27.39;40.95
19526;BME280;9907;42.676;26.348;2023-06-10T11:40:58;99023.72;;;27.49;42.59
19526;BME280;9907;42.676;26.348;2023-06-10T11:43:24;99016.09;;;27.56;41.73
19526;BME280;9907;42.676;26.348;2023-06-10T11:45:54;99016.25;;;27.39;42.62
19526;BME280;9907;42.676;26.348;2023-06-10T11:48:20;99017.91;;;27.40;42.27
19526;BME280;9907;42.676;26.348;2023-06-10T11:50:45;99015.56;;;27.17;41.84
19526;BME280;9907;42.676;26.348;2023-06-10T11:53:10;99012.41;;;26.88;41.98
19526;BME280;9907;42.676;26.348;2023-06-10T11:55:46;99016.03;;;26.72;42.20
19526;BME280;9907;42.676;26.348;2023-06-10T11:58:22;99000.19;;;26.96;42.00
19526;BME280;9907;42.676;26.348;2023-06-10T12:00:52;99007.94;;;27.14;41.99
19526;BME280;9907;42.676;26.348;2023-06-10T12:03:27;99004.38;;;27.08;41.64
19526;BME280;9907;42.676;26.348;2023-06-10T12:06:02;99006.81;;;27.10;42.02
19526;BME280;9907;42.676;26.348;2023-06-10T12:08:28;98996.88;;;27.31;42.57
19526;BME280;9907;42.676;26.348;2023-06-10T12:10:54;99007.78;;;27.31;41.70
19526;BME280;9907;42.676;26.348;2023-06-10T12:13:20;98996.91;;;27.41;41.64
19526;BME280;9907;42.676;26.348;2023-06-10T12:15:46;98995.91;;;27.57;42.29
19526;BME280;9907;42.676;26.348;2023-06-10T12:18:21;98990.25;;;27.74;42.16
19526;BME280;9907;42.676;26.348;2023-06-10T12:20:47;98990.53;;;27.72;41.88
19526;BME280;9907;42.676;26.348;2023-06-10T12:23:16;98986.66;;;27.53;41.37
19526;BME280;9907;42.676;26.348;2023-06-10T12:25:55;98984.84;;;27.32;42.36
19526;BME280;9907;42.676;26.348;2023-06-10T12:28:25;98984.78;;;27.17;42.36
19526;BME280;9907;42.676;26.348;2023-06-10T12:30:51;98987.69;;;27.00;42.06
19526;BME280;9907;42.676;26.348;2023-06-10T12:33:18;98982.47;;;26.98;43.19
19526;BME280;9907;42.676;26.348;2023-06-10T12:35:51;98978.22;;;27.13;43.37
19526;BME280;9907;42.676;26.348;2023-06-10T12:38:26;98987.19;;;27.08;42.63
19526;BME280;9907;42.676;26.348;2023-06-10T12:41:01;98987.72;;;26.73;42.04
19526;BME280;9907;42.676;26.348;2023-06-10T12:43:26;98982.16;;;26.58;43.71
19526;BME280;9907;42.676;26.348;2023-06-10T12:45:52;98978.66;;;26.62;42.42
19526;BME280;9907;42.676;26.348;2023-06-10T12:48:20;98980.88;;;26.66;44.22
19526;BME280;9907;42.676;26.348;2023-06-10T12:51:05;98977.25;;;26.55;43.45
19526;BME280;9907;42.676;26.348;2023-06-10T12:53:31;98985.53;;;26.70;43.32
19526;BME280;9907;42.676;26.348;2023-06-10T12:55:56;98976.00;;;26.73;42.91
19526;BME280;9907;42.676;26.348;2023-06-10T12:58:23;98971.56;;;26.61;42.44
19526;BME280;9907;42.676;26.348;2023-06-10T13:00:49;98971.03;;;26.64;41.97
19526;BME280;9907;42.676;26.348;2023-06-10T13:03:17;98970.31;;;26.74;40.51
19526;BME280;9907;42.676;26.348;2023-06-10T13:05:43;98963.31;;;26.83;41.16
19526;BME280;9907;42.676;26.348;2023-06-10T13:08:08;98974.25;;;26.88;41.40
19526;BME280;9907;42.676;26.348;2023-06-10T13:10:37;98974.78;;;26.85;41.90
19526;BME280;9907;42.676;26.348;2023-06-10T13:13:03;98970.84;;;26.71;40.71
19526;BME280;9907;42.676;26.348;2023-06-10T13:15:32;98967.59;;;26.74;41.89
19526;BME280;9907;42.676;26.348;2023-06-10T13:18:02;98978.63;;;26.57;42.80
19526;BME280;9907;42.676;26.348;2023-06-10T13:20:29;98975.94;;;26.62;43.97